Weather at Grossmont Hospital Heliport

Public forecast

Using degrees Fahrenheit for public forecast. Weather courtesy of forecast.io.

Closest aviation weather report (METAR) to Grossmont Hospital Heliport

Closest report is Gillespie Field, 3.3 nm (6.1 km) NNE.

2024/06/22 07:15 (retrieved 19 minutes ago)

KSEE 220715Z AUTO 29004KT 10SM CLR 17/15 A2980 RMK AO2

Closest aviation forecast (TAF) to Grossmont Hospital Heliport

Closest forecast is San Diego International Airport, 9.6 nm (17.9 km) WSW.

2024/06/22 06:22 (retrieved 1 hour ago)

TAF KSAN 220520Z 2206/2312 32004KT P6SM SCT010 FM220800 31004KT P6SM BKN010 FM221600 VRB04KT P6SM SCT012 FM221900 29011KT P6SM SKC